Time;durP1;ratioP1;P1;durP2;ratioP2;P2;SDS_P1;SDS_P2;PMS_P1;PMS_P2;Temp;Humidity;BMP_temperature;BMP_pressure;BME280_temperature;BME280_humidity;BME280_pressure;Samples;Min_cycle;Max_cycle;Signal;HPM_P1;HPM_P2
2023/01/14 00:02:03;;;;;;;19.33;6.30;;;;;;;7.57;75.20;101126.16;5113913;28;20175;-69
2023/01/14 00:04:29;;;;;;;22.97;5.63;;;;;;;7.60;74.76;101128.63;5113584;28;20227;-69
2023/01/14 00:06:55;;;;;;;23.83;6.50;;;;;;;7.57;74.88;101122.63;5096098;28;20709;-69
2023/01/14 00:09:22;;;;;;;23.20;5.87;;;;;;;7.54;74.86;101128.97;5113608;28;20169;-69
2023/01/14 00:11:51;;;;;;;27.07;6.27;;;;;;;7.59;75.26;101118.03;5113573;28;20192;-69
2023/01/14 00:14:21;;;;;;;23.27;5.90;;;;;;;7.57;74.48;101119.97;5113504;28;20192;-69
2023/01/14 00:16:50;;;;;;;26.07;6.40;;;;;;;7.48;74.81;101120.44;5113508;28;20173;-69
2023/01/14 00:19:16;;;;;;;21.63;6.17;;;;;;;7.45;75.33;101117.00;5113457;28;20192;-70
2023/01/14 00:21:43;;;;;;;25.30;6.43;;;;;;;7.49;75.05;101120.34;5113517;28;20178;-69
2023/01/14 00:24:11;;;;;;;18.23;5.17;;;;;;;7.48;75.28;101110.63;5113204;28;20226;-69
2023/01/14 00:26:38;;;;;;;16.93;4.57;;;;;;;7.46;75.12;101110.69;5113629;28;20197;-68
2023/01/14 00:29:04;;;;;;;30.80;6.17;;;;;;;7.42;75.16;101117.16;5113403;28;20732;-69
2023/01/14 00:31:31;;;;;;;22.10;6.10;;;;;;;7.38;75.66;101117.41;5116334;28;20195;-69
2023/01/14 00:33:59;;;;;;;26.40;5.63;;;;;;;7.38;75.82;101120.06;5117391;28;20215;-69
2023/01/14 00:36:26;;;;;;;22.10;5.17;;;;;;;7.38;75.46;101118.25;5117352;28;20275;-69
2023/01/14 00:38:54;;;;;;;21.23;6.03;;;;;;;7.33;75.76;101119.44;5098903;28;20308;-69
2023/01/14 00:41:25;;;;;;;27.47;6.20;;;;;;;7.33;75.15;101117.63;5117216;28;20221;-69
2023/01/14 00:43:54;;;;;;;28.50;4.90;;;;;;;7.34;75.80;101129.16;5117133;28;20627;-69
2023/01/14 00:46:29;;;;;;;19.93;5.17;;;;;;;7.29;76.28;101132.03;5117102;28;20190;-69
2023/01/14 00:48:58;;;;;;;12.83;4.80;;;;;;;7.30;75.26;101128.44;5116691;28;20199;-69
2023/01/14 00:51:26;;;;;;;20.93;4.17;;;;;;;7.34;75.98;101131.81;5117339;28;20526;-69
2023/01/14 00:53:52;;;;;;;15.67;5.03;;;;;;;7.41;75.25;101135.88;5098741;28;20678;-69
2023/01/14 00:56:21;;;;;;;27.43;6.10;;;;;;;7.43;75.37;101136.66;5116975;28;20527;-69
2023/01/14 00:58:48;;;;;;;18.50;4.50;;;;;;;7.38;75.63;101138.72;5116766;28;20626;-69
2023/01/14 01:01:15;;;;;;;26.10;6.03;;;;;;;7.40;75.71;101145.69;5116944;28;20537;-69
2023/01/14 01:03:51;;;;;;;16.50;5.17;;;;;;;7.43;75.83;101145.50;5117028;28;20201;-69
2023/01/14 01:06:19;;;;;;;23.43;5.70;;;;;;;7.50;75.12;101148.72;5116823;28;20684;-69
2023/01/14 01:08:46;;;;;;;30.40;6.17;;;;;;;7.44;75.86;101151.69;5116921;28;20209;-69
2023/01/14 01:11:14;;;;;;;12.17;4.93;;;;;;;7.49;75.29;101160.31;5098359;28;20602;-69
2023/01/14 01:13:40;;;;;;;26.73;5.03;;;;;;;7.45;75.26;101159.63;5116635;28;20193;-69
2023/01/14 01:16:11;;;;;;;18.33;4.20;;;;;;;7.43;75.45;101171.31;5116615;28;20188;-69
2023/01/14 01:18:39;;;;;;;24.60;4.63;;;;;;;7.42;75.18;101164.25;5116359;28;20197;-70
2023/01/14 01:21:08;;;;;;;10.57;4.23;;;;;;;7.41;75.37;101166.03;5098165;28;20217;-69
2023/01/14 01:23:40;;;;;;;23.00;5.37;;;;;;;7.44;75.55;101173.03;5116239;28;20297;-69
2023/01/14 01:26:13;;;;;;;15.50;4.90;;;;;;;7.48;75.09;101168.41;5116730;28;20178;-69
2023/01/14 01:28:39;;;;;;;24.43;4.97;;;;;;;7.44;75.18;101165.03;5116882;28;20215;-69
2023/01/14 01:31:11;;;;;;;24.73;5.37;;;;;;;7.44;75.29;101170.34;5098834;28;20201;-69
2023/01/14 01:33:38;;;;;;;23.77;5.67;;;;;;;7.45;75.20;101178.28;5116832;28;20204;-69
2023/01/14 01:36:16;;;;;;;17.03;5.00;;;;;;;7.37;75.89;101175.13;5116190;28;20276;-69
2023/01/14 01:38:45;;;;;;;20.10;4.33;;;;;;;7.33;75.98;101175.41;5097847;28;20711;-69
2023/01/14 01:41:15;;;;;;;17.97;5.17;;;;;;;7.37;76.32;101184.94;5114574;28;20193;-69
2023/01/14 01:44:06;;;;;;;19.23;5.70;;;;;;;7.35;76.45;101177.03;5115912;28;20204;-69
2023/01/14 01:46:32;;;;;;;16.73;4.43;;;;;;;7.41;76.27;101186.50;5097479;28;20290;-68
2023/01/14 01:49:23;;;;;;;31.23;5.87;;;;;;;7.41;75.95;101182.03;5116512;28;20189;-69
2023/01/14 01:52:13;;;;;;;21.33;4.80;;;;;;;7.37;75.81;101185.78;5106406;28;20214;-69
2023/01/14 01:54:45;;;;;;;33.93;5.13;;;;;;;7.38;76.29;101192.00;5115839;28;20252;-69
2023/01/14 01:57:15;;;;;;;21.43;5.43;;;;;;;7.50;75.94;101187.84;5115795;28;20210;-68
2023/01/14 01:59:45;;;;;;;25.10;4.47;;;;;;;7.50;76.32;101185.19;5097492;28;20275;-68
2023/01/14 02:02:14;;;;;;;22.03;5.43;;;;;;;7.55;76.22;101180.47;5114375;28;20216;-69
2023/01/14 02:04:40;;;;;;;24.17;5.53;;;;;;;7.49;76.14;101178.97;5115586;28;20235;-69
2023/01/14 02:07:20;;;;;;;29.07;5.83;;;;;;;7.50;76.77;101179.84;5115548;28;20205;-68
2023/01/14 02:09:49;;;;;;;22.90;5.80;;;;;;;7.50;77.05;101180.72;5116156;28;20210;-70
2023/01/14 02:12:30;;;;;;;18.10;5.23;;;;;;;7.49;77.32;101186.97;5097513;28;20619;-69
2023/01/14 02:15:10;;;;;;;14.80;4.67;;;;;;;7.44;77.03;101183.69;5115729;28;20169;-69
2023/01/14 02:18:02;;;;;;;31.27;5.23;;;;;;;7.38;76.85;101190.19;5115653;28;20661;-69
2023/01/14 02:20:44;;;;;;;18.40;4.83;;;;;;;7.42;77.51;101190.88;5115706;28;20252;-69
2023/01/14 02:23:41;;;;;;;21.03;5.73;;;;;;;7.41;77.52;101184.69;5096938;28;20205;-69
2023/01/14 02:26:30;;;;;;;30.33;5.73;;;;;;;7.35;77.00;101184.16;5097477;28;20185;-69
2023/01/14 02:29:17;;;;;;;24.67;5.20;;;;;;;7.29;77.59;101177.34;5115732;28;20569;-68
2023/01/14 02:32:22;;;;;;;21.67;5.57;;;;;;;7.32;77.63;101185.16;5113808;28;20197;-68
2023/01/14 02:35:32;;;;;;;34.37;6.00;;;;;;;7.26;77.71;101184.63;5096694;28;20212;-68
2023/01/14 02:38:07;;;;;;;14.40;4.83;;;;;;;7.18;77.56;101174.34;5096385;28;20217;-68
2023/01/14 02:40:44;;;;;;;24.80;4.77;;;;;;;7.16;78.03;101168.22;5113682;28;20192;-68
2023/01/14 02:46:09;;;;;;;22.53;4.63;;;;;;;7.10;77.77;101158.75;5115154;28;20593;-68
2023/01/14 02:48:37;;;;;;;15.73;4.03;;;;;;;7.04;78.32;101169.75;5096493;28;20228;-68
2023/01/14 02:51:04;;;;;;;22.43;4.67;;;;;;;6.99;78.33;101174.41;5115008;28;20268;-68
2023/01/14 02:53:31;;;;;;;27.20;6.93;;;;;;;6.97;78.64;101171.84;5096204;28;20208;-69
2023/01/14 02:56:00;;;;;;;36.07;5.47;;;;;;;6.93;78.30;101164.94;5096404;28;20185;-69
2023/01/14 02:58:46;;;;;;;22.30;4.33;;;;;;;6.79;79.22;101160.28;5096554;28;20292;-68
2023/01/14 03:01:45;;;;;;;20.17;5.23;;;;;;;6.84;79.21;101154.72;5114131;28;20237;-69
2023/01/14 03:04:48;;;;;;;14.20;3.90;;;;;;;6.82;78.92;101143.28;5097194;28;20216;-69
2023/01/14 03:07:30;;;;;;;21.33;4.20;;;;;;;6.71;79.13;101141.16;5098548;28;20705;-68
2023/01/14 03:10:12;;;;;;;19.43;3.87;;;;;;;6.68;79.64;101137.78;5097225;28;20211;-68
2023/01/14 03:12:46;;;;;;;22.07;5.33;;;;;;;6.59;79.87;101126.66;5098736;28;20196;-68
2023/01/14 03:15:27;;;;;;;22.40;4.17;;;;;;;6.52;80.01;101124.38;5115326;28;20166;-68
2023/01/14 03:18:02;;;;;;;21.93;5.03;;;;;;;6.51;79.83;101112.88;5096578;28;20205;-68
2023/01/14 03:20:36;;;;;;;20.90;4.57;;;;;;;6.46;80.50;101114.03;5096458;28;20177;-68
2023/01/14 03:23:12;;;;;;;12.80;4.13;;;;;;;6.47;79.84;101111.31;5114457;28;20673;-68
2023/01/14 03:25:43;;;;;;;21.80;4.80;;;;;;;6.43;80.13;101112.38;5096039;28;20205;-68
2023/01/14 03:28:23;;;;;;;17.60;4.23;;;;;;;6.46;80.24;101112.22;5096493;28;20208;-68
2023/01/14 03:30:56;;;;;;;13.77;3.93;;;;;;;6.50;80.03;101115.59;5097221;28;20185;-68
2023/01/14 03:33:33;;;;;;;17.77;4.77;;;;;;;6.42;80.28;101118.66;5119324;28;20163;-68
2023/01/14 03:36:04;;;;;;;18.83;5.00;;;;;;;6.49;80.55;101109.44;5096438;28;20684;-68
2023/01/14 03:38:41;;;;;;;31.10;4.97;;;;;;;6.43;80.36;101108.84;5113997;28;20205;-68
2023/01/14 03:41:11;;;;;;;19.13;6.20;;;;;;;6.38;80.72;101109.06;5114526;28;20181;-68
2023/01/14 03:43:46;;;;;;;12.37;4.73;;;;;;;6.38;80.79;101109.06;5113914;28;20176;-69
2023/01/14 03:46:12;;;;;;;24.63;5.57;;;;;;;6.38;80.31;101103.75;5114418;28;20521;-69
2023/01/14 03:48:39;;;;;;;28.63;4.70;;;;;;;6.39;80.31;101097.50;5113734;28;20215;-68
2023/01/14 03:51:20;;;;;;;21.93;4.90;;;;;;;6.40;80.29;101101.91;5113760;28;20192;-68
2023/01/14 03:54:07;;;;;;;20.70;4.63;;;;;;;6.42;80.43;101101.78;5114317;28;20608;-68
2023/01/14 03:56:47;;;;;;;22.67;3.77;;;;;;;6.38;80.54;101101.09;5113910;28;20261;-68
2023/01/14 03:59:32;;;;;;;13.67;4.00;;;;;;;6.36;80.93;101101.16;5114005;28;20616;-68
2023/01/14 04:02:00;;;;;;;28.83;4.27;;;;;;;6.41;80.60;101102.75;5114007;28;20300;-68
2023/01/14 04:04:27;;;;;;;22.50;4.37;;;;;;;6.40;80.66;101101.91;5113585;28;20678;-68
2023/01/14 04:06:53;;;;;;;20.90;4.90;;;;;;;6.45;80.49;101109.66;5117899;28;20619;-68
2023/01/14 04:09:20;;;;;;;20.87;3.83;;;;;;;6.57;80.06;101096.59;5117910;28;20196;-69
2023/01/14 04:11:46;;;;;;;22.60;4.50;;;;;;;6.48;80.13;101086.41;5117862;28;20177;-69
2023/01/14 04:16:57;;;;;;;23.67;4.07;;;;;;;6.58;79.89;101074.41;5117727;28;20209;-69
2023/01/14 04:19:24;;;;;;;37.23;5.60;;;;;;;6.50;79.88;101076.56;5118320;28;20534;-69
2023/01/14 04:21:50;;;;;;;29.47;5.47;;;;;;;6.57;79.54;101069.13;5117611;28;20181;-69
2023/01/14 04:24:17;;;;;;;24.37;4.93;;;;;;;6.56;79.48;101064.72;5117584;28;20207;-69
2023/01/14 04:26:43;;;;;;;20.07;5.00;;;;;;;6.47;79.75;101055.44;5117540;28;20177;-68
2023/01/14 04:29:09;;;;;;;24.23;5.77;;;;;;;6.55;79.88;101052.38;5117820;28;20189;-68
2023/01/14 04:31:36;;;;;;;23.23;5.07;;;;;;;6.54;79.80;101048.88;5116170;28;20203;-68
2023/01/14 04:34:02;;;;;;;18.10;5.97;;;;;;;6.54;79.99;101042.69;5117449;28;20238;-68
2023/01/14 04:36:28;;;;;;;20.00;4.13;;;;;;;6.54;79.64;101048.00;5117374;28;20181;-69
2023/01/14 04:38:55;;;;;;;20.80;4.77;;;;;;;6.54;79.37;101040.88;5117665;28;20191;-69
2023/01/14 04:44:11;;;;;;;12.30;5.40;;;;;;;6.52;79.20;101032.13;5079421;28;20200;-69
2023/01/14 04:46:37;;;;;;;16.80;4.63;;;;;;;6.44;79.54;101031.66;5117130;28;20189;-68
2023/01/14 04:49:03;;;;;;;21.83;4.63;;;;;;;6.45;79.41;101020.06;5117139;28;20193;-69
2023/01/14 04:51:30;;;;;;;13.57;3.93;;;;;;;6.43;79.13;101019.25;5117353;28;20206;-69
2023/01/14 04:53:56;;;;;;;22.03;4.47;;;;;;;6.43;79.41;101023.72;5117096;28;20193;-69
2023/01/14 04:56:22;;;;;;;12.73;3.57;;;;;;;6.38;79.86;101015.97;5116952;28;20187;-69
2023/01/14 04:58:49;;;;;;;15.10;3.63;;;;;;;6.46;79.24;101013.78;5116898;28;20292;-69
2023/01/14 05:01:15;;;;;;;7.67;3.07;;;;;;;6.40;79.29;101008.78;5116922;28;20606;-69
2023/01/14 05:03:42;;;;;;;22.60;3.90;;;;;;;6.39;79.21;101002.59;5117146;28;20235;-69
2023/01/14 05:06:08;;;;;;;14.10;4.67;;;;;;;6.33;79.36;101002.91;5116753;28;20213;-69
2023/01/14 05:08:34;;;;;;;23.70;4.10;;;;;;;6.36;79.24;100986.78;5116761;28;20209;-69
2023/01/14 05:11:01;;;;;;;20.23;4.03;;;;;;;6.30;79.67;100987.09;5116997;28;20196;-69
2023/01/14 05:13:27;;;;;;;8.70;3.57;;;;;;;6.26;79.58;100979.34;5116710;28;20269;-69
2023/01/14 05:15:58;;;;;;;18.50;3.90;;;;;;;6.30;79.37;100972.94;5116652;28;20259;-69
2023/01/14 05:18:25;;;;;;;17.20;3.63;;;;;;;6.28;79.32;100973.03;5116523;28;20691;-69
2023/01/14 05:20:51;;;;;;;8.10;3.80;;;;;;;6.24;79.63;100967.94;5116494;28;20194;-69
2023/01/14 05:23:18;;;;;;;10.20;3.83;;;;;;;6.28;79.53;100961.53;5116421;28;20709;-69
2023/01/14 05:25:45;;;;;;;17.83;4.83;;;;;;;6.27;79.46;100951.81;5116379;28;20205;-69
2023/01/14 05:28:14;;;;;;;21.97;4.27;;;;;;;6.29;79.24;100948.13;5116350;28;20342;-68
2023/01/14 05:30:41;;;;;;;23.50;4.23;;;;;;;6.28;78.88;100950.88;5116336;28;20187;-68
2023/01/14 05:33:08;;;;;;;6.17;3.80;;;;;;;6.25;79.18;100949.25;5116839;28;20597;-68
2023/01/14 05:35:35;;;;;;;21.27;4.00;;;;;;;6.26;79.22;100947.44;5116241;28;20268;-68
2023/01/14 05:38:03;;;;;;;11.23;3.80;;;;;;;6.26;79.31;100948.28;5116118;28;20201;-68
2023/01/14 05:40:29;;;;;;;28.23;4.67;;;;;;;6.25;79.29;100937.72;5116406;28;20181;-68
2023/01/14 05:45:49;;;;;;;18.07;4.30;;;;;;;6.28;79.19;100913.66;5116301;28;20598;-69
2023/01/14 05:48:18;;;;;;;23.57;4.33;;;;;;;6.32;78.92;100916.09;5115943;28;20214;-68
2023/01/14 05:50:44;;;;;;;15.83;3.93;;;;;;;6.34;78.74;100930.13;5116224;28;20540;-68
2023/01/14 05:53:11;;;;;;;10.13;4.10;;;;;;;6.32;79.00;100920.50;5116161;28;20648;-68
2023/01/14 05:55:37;;;;;;;20.97;4.00;;;;;;;6.34;78.27;100918.63;5116119;28;20209;-68
2023/01/14 05:58:05;;;;;;;12.57;3.87;;;;;;;6.35;78.26;100909.75;5115885;28;20220;-68
2023/01/14 06:06:23;;;;;;;15.30;4.10;;;;;;;6.38;77.71;100901.59;5115576;28;20200;-68
2023/01/14 06:08:55;;;;;;;22.63;3.93;;;;;;;6.39;76.72;100897.97;5116633;28;20231;-68
2023/01/14 06:11:24;;;;;;;29.97;4.47;;;;;;;6.39;76.75;100887.34;5115855;28;20215;-68
2023/01/14 06:13:54;;;;;;;7.60;3.27;;;;;;;6.40;76.52;100891.75;5115540;28;20180;-68
2023/01/14 06:16:21;;;;;;;17.83;4.13;;;;;;;6.42;76.53;100883.66;5115460;28;20204;-68
2023/01/14 06:18:48;;;;;;;22.47;4.80;;;;;;;6.39;76.25;100885.56;5115263;28;20201;-69
2023/01/14 06:21:23;;;;;;;20.83;3.67;;;;;;;6.43;76.00;100869.44;5115552;28;20189;-69
2023/01/14 06:23:49;;;;;;;15.63;3.73;;;;;;;6.41;75.69;100863.34;5115213;28;20192;-69
2023/01/14 06:26:19;;;;;;;12.50;4.20;;;;;;;6.46;75.16;100858.63;5115132;28;20216;-69
2023/01/14 06:28:46;;;;;;;12.23;3.97;;;;;;;6.40;75.34;100849.19;5115398;28;20208;-68
2023/01/14 06:31:15;;;;;;;14.03;3.57;;;;;;;6.36;75.57;100845.81;5115180;28;20189;-68
2023/01/14 06:33:43;;;;;;;13.70;3.53;;;;;;;6.35;75.47;100838.78;5115114;28;20181;-69
2023/01/14 06:36:10;;;;;;;19.73;4.03;;;;;;;6.30;75.55;100840.81;5115065;28;20191;-69
2023/01/14 06:38:37;;;;;;;11.77;3.57;;;;;;;6.33;75.40;100835.34;5114978;28;20197;-68
2023/01/14 06:41:06;;;;;;;13.93;3.43;;;;;;;6.40;74.72;100825.25;5115510;28;20188;-68
2023/01/14 06:43:33;;;;;;;12.47;3.00;;;;;;;6.32;75.14;100819.44;5115151;28;20552;-68
2023/01/14 06:45:59;;;;;;;13.63;3.40;;;;;;;6.45;74.55;100820.53;5115326;28;20207;-68
2023/01/14 06:48:26;;;;;;;11.53;3.37;;;;;;;6.41;74.69;100815.44;5114720;28;20202;-68
2023/01/14 06:50:53;;;;;;;13.30;4.03;;;;;;;6.40;74.88;100806.63;5114788;28;20231;-68
2023/01/14 06:53:22;;;;;;;13.13;3.83;;;;;;;6.41;74.60;100805.66;5114725;28;20242;-68
2023/01/14 06:55:49;;;;;;;14.53;3.63;;;;;;;6.35;74.96;100796.22;5114946;28;20184;-68
2023/01/14 06:58:15;;;;;;;11.30;3.23;;;;;;;6.41;74.77;100788.84;5114545;28;20205;-68
2023/01/14 07:00:42;;;;;;;6.70;4.13;;;;;;;6.45;74.36;100788.59;5114842;28;20185;-68
2023/01/14 07:03:08;;;;;;;13.97;3.40;;;;;;;6.47;74.47;100785.88;5114505;28;20217;-70
2023/01/14 07:05:35;;;;;;;14.67;3.90;;;;;;;6.55;74.35;100773.84;5114356;28;20208;-70
2023/01/14 07:08:01;;;;;;;13.97;3.83;;;;;;;6.58;74.35;100763.06;5114300;28;20209;-70
2023/01/14 07:10:28;;;;;;;11.77;2.67;;;;;;;6.57;74.04;100766.66;5114829;28;20186;-70
2023/01/14 07:12:54;;;;;;;18.20;4.20;;;;;;;6.59;74.17;100762.13;5114492;28;20193;-70
2023/01/14 07:15:21;;;;;;;17.37;4.73;;;;;;;6.66;73.85;100762.63;5114183;28;20184;-70
2023/01/14 07:17:49;;;;;;;7.37;3.70;;;;;;;6.71;73.77;100755.25;5114112;28;20233;-69
2023/01/14 07:20:16;;;;;;;11.57;3.37;;;;;;;6.69;73.46;100762.47;5114242;28;20551;-70
2023/01/14 07:22:43;;;;;;;12.60;4.60;;;;;;;6.70;73.83;100753.53;5113945;28;20207;-70
2023/01/14 07:25:09;;;;;;;10.87;4.47;;;;;;;6.70;73.62;100732.22;5113935;28;20211;-70
2023/01/14 07:27:36;;;;;;;12.70;3.93;;;;;;;6.72;74.24;100733.00;5114287;28;20265;-69
2023/01/14 07:30:03;;;;;;;10.20;3.50;;;;;;;6.70;74.39;100724.25;5114235;28;20201;-69
2023/01/14 07:32:32;;;;;;;5.63;3.23;;;;;;;6.72;74.84;100724.16;5113903;28;20195;-69
2023/01/14 07:34:58;;;;;;;10.43;3.17;;;;;;;6.67;75.88;100712.94;5114396;28;20271;-69
2023/01/14 07:37:25;;;;;;;16.77;3.20;;;;;;;6.71;76.18;100711.81;5113904;28;20201;-69
2023/01/14 07:39:51;;;;;;;6.97;2.97;;;;;;;6.67;76.89;100707.63;5113116;28;20181;-69
2023/01/14 07:42:18;;;;;;;7.60;3.17;;;;;;;6.71;76.79;100696.72;5113754;28;20185;-69
2023/01/14 07:44:46;;;;;;;10.47;3.77;;;;;;;6.54;78.31;100686.16;5095397;28;20211;-69
2023/01/14 07:47:15;;;;;;;11.27;3.90;;;;;;;6.47;79.20;100687.44;5113635;28;20204;-69
2023/01/14 07:49:41;;;;;;;22.70;5.17;;;;;;;6.41;79.96;100680.63;5114542;28;20571;-69
2023/01/14 07:52:12;;;;;;;12.20;4.80;;;;;;;6.37;80.64;100679.97;5113711;28;20197;-70
2023/01/14 07:54:40;;;;;;;13.43;5.13;;;;;;;6.31;80.85;100674.13;5096481;28;20641;-70
2023/01/14 07:57:09;;;;;;;9.57;4.20;;;;;;;6.36;81.34;100669.41;5114173;28;20205;-69
2023/01/14 07:59:36;;;;;;;11.90;4.67;;;;;;;6.31;81.69;100671.47;5113882;28;20223;-69
2023/01/14 08:02:04;;;;;;;13.67;4.43;;;;;;;6.28;82.10;100661.00;5113873;28;20598;-70
2023/01/14 08:04:31;;;;;;;12.93;4.07;;;;;;;6.31;81.82;100655.50;5113623;28;20195;-70
2023/01/14 08:06:58;;;;;;;12.50;4.17;;;;;;;6.16;82.64;100636.78;5113443;28;20209;-70
2023/01/14 08:09:25;;;;;;;14.60;4.47;;;;;;;6.18;82.95;100644.69;5114128;28;20189;-69
2023/01/14 08:11:53;;;;;;;10.57;4.50;;;;;;;6.16;83.56;100642.13;5113554;28;20185;-69
2023/01/14 08:14:19;;;;;;;11.20;5.80;;;;;;;6.14;83.73;100635.16;5113881;28;20255;-69
2023/01/14 08:16:46;;;;;;;5.13;3.47;;;;;;;6.17;83.69;100621.69;5113447;28;20169;-69
2023/01/14 08:19:14;;;;;;;10.07;3.83;;;;;;;6.12;84.40;100610.47;5113799;28;20238;-69
2023/01/14 08:21:41;;;;;;;10.27;3.60;;;;;;;6.01;84.93;100612.84;5113808;28;20615;-70
2023/01/14 08:24:07;;;;;;;8.83;4.50;;;;;;;6.01;85.51;100604.84;5113390;28;20197;-70
2023/01/14 08:26:34;;;;;;;9.43;4.13;;;;;;;6.02;85.33;100594.16;5113846;28;20244;-69
2023/01/14 08:29:00;;;;;;;12.30;4.83;;;;;;;6.03;85.21;100579.91;5113668;28;20268;-71
2023/01/14 08:31:37;;;;;;;9.70;2.97;;;;;;;6.04;85.52;100597.59;5114000;28;20169;-69
2023/01/14 08:34:04;;;;;;;9.53;4.30;;;;;;;6.08;85.42;100590.28;5113366;28;20279;-69
2023/01/14 08:36:30;;;;;;;18.23;6.00;;;;;;;6.04;85.79;100578.13;5113242;28;20185;-70
2023/01/14 08:38:56;;;;;;;11.07;4.17;;;;;;;5.97;85.96;100583.78;5113349;28;20272;-70
2023/01/14 08:41:23;;;;;;;14.67;4.97;;;;;;;6.00;86.35;100572.13;5113301;28;20189;-70
2023/01/14 08:43:50;;;;;;;18.33;5.93;;;;;;;5.97;86.70;100565.16;5113329;28;20268;-70
2023/01/14 08:46:16;;;;;;;9.63;4.57;;;;;;;5.96;86.67;100555.50;5113196;28;20214;-70
2023/01/14 08:48:43;;;;;;;10.70;4.83;;;;;;;5.98;86.89;100544.75;5113199;28;20741;-70
2023/01/14 08:51:11;;;;;;;10.50;4.10;;;;;;;6.04;87.03;100556.88;5113850;28;20182;-70
2023/01/14 08:53:39;;;;;;;8.70;4.67;;;;;;;6.01;86.91;100526.00;5116933;28;20655;-70
2023/01/14 08:56:09;;;;;;;9.97;3.53;;;;;;;6.10;86.62;100527.25;5116972;28;20613;-70
2023/01/14 08:58:36;;;;;;;10.40;4.00;;;;;;;6.07;87.08;100525.63;5116990;28;20209;-70
2023/01/14 09:01:05;;;;;;;5.47;4.67;;;;;;;6.06;87.12;100510.66;5115679;28;20198;-70
2023/01/14 09:03:33;;;;;;;10.37;4.93;;;;;;;6.11;87.29;100507.72;5117205;28;20179;-70
2023/01/14 09:06:02;;;;;;;8.10;6.77;;;;;;;6.11;87.44;100492.63;5117040;28;20700;-70
2023/01/14 09:17:05;;;;;;;20.17;5.40;;;;;;;6.17;87.20;100464.81;5116893;28;20249;-70
2023/01/14 09:19:53;;;;;;;10.00;5.07;;;;;;;6.20;86.78;100431.88;5117104;28;20222;-71
2023/01/14 09:22:24;;;;;;;5.17;2.97;;;;;;;6.24;86.23;100439.59;5116884;28;20284;-71
2023/01/14 09:24:51;;;;;;;9.97;3.90;;;;;;;6.28;86.01;100434.97;5116831;28;20280;-71
2023/01/14 09:27:19;;;;;;;9.97;4.90;;;;;;;6.35;86.48;100438.97;5116249;28;20299;-70
2023/01/14 09:29:45;;;;;;;10.73;3.83;;;;;;;6.35;86.37;100437.16;5116542;28;20605;-70
2023/01/14 09:32:14;;;;;;;4.07;3.77;;;;;;;6.47;85.83;100424.94;5116354;28;20220;-70
2023/01/14 09:34:47;;;;;;;8.03;4.53;;;;;;;6.54;84.89;100404.16;5116175;28;20651;-70
2023/01/14 09:37:19;;;;;;;8.13;6.33;;;;;;;6.57;84.85;100415.44;5116235;28;20201;-70
2023/01/14 09:39:46;;;;;;;10.10;4.77;;;;;;;6.67;84.41;100405.09;5116534;28;20258;-70
2023/01/14 09:42:18;;;;;;;10.50;4.13;;;;;;;6.65;84.20;100390.19;5116204;28;20328;-71
2023/01/14 09:44:44;;;;;;;4.30;4.03;;;;;;;6.73;83.76;100380.78;5116031;28;20539;-71
2023/01/14 09:47:14;;;;;;;14.70;5.27;;;;;;;6.80;83.82;100379.47;5116029;28;20217;-69
2023/01/14 09:49:41;;;;;;;6.53;3.67;;;;;;;6.86;83.42;100377.38;5116199;28;20189;-69
2023/01/14 09:52:26;;;;;;;10.67;4.73;;;;;;;6.94;83.10;100375.06;5116446;28;20182;-70
2023/01/14 09:55:10;;;;;;;5.63;3.37;;;;;;;6.92;83.45;100367.19;5115855;28;20187;-70
2023/01/14 09:57:47;;;;;;;7.77;3.90;;;;;;;7.01;82.75;100363.94;5116554;28;20209;-70
2023/01/14 10:00:33;;;;;;;5.27;2.87;;;;;;;7.08;81.67;100351.09;5116070;28;20183;-70
2023/01/14 10:03:23;;;;;;;17.43;4.00;;;;;;;7.12;82.06;100333.97;5114868;28;20179;-70
2023/01/14 10:06:01;;;;;;;7.40;3.87;;;;;;;7.13;82.16;100335.69;5115905;28;20189;-70
2023/01/14 10:08:33;;;;;;;4.73;2.67;;;;;;;7.15;82.25;100295.66;5115606;28;20200;-70
2023/01/14 10:11:01;;;;;;;6.90;2.93;;;;;;;7.22;81.27;100300.47;5115850;28;20324;-70
2023/01/14 10:13:39;;;;;;;3.20;3.00;;;;;;;7.17;82.46;100294.59;5115502;28;20189;-70
2023/01/14 10:16:28;;;;;;;2.37;2.23;;;;;;;7.18;82.75;100301.66;5115554;28;20169;-70
2023/01/14 10:19:04;;;;;;;2.67;2.20;;;;;;;7.24;83.16;100295.06;5115408;28;20205;-71
2023/01/14 10:21:57;;;;;;;3.67;2.97;;;;;;;7.23;83.10;100296.00;5115994;28;20177;-71
2023/01/14 10:24:24;;;;;;;2.63;2.53;;;;;;;7.22;83.02;100287.16;5115642;28;20640;-71
2023/01/14 10:26:51;;;;;;;3.90;3.60;;;;;;;7.22;83.66;100268.50;5115433;28;20217;-70
2023/01/14 10:29:20;;;;;;;4.43;4.13;;;;;;;7.22;84.17;100262.34;5115491;28;20193;-70
2023/01/14 10:31:53;;;;;;;6.63;2.53;;;;;;;7.22;84.17;100260.53;5115552;28;20181;-70
2023/01/14 10:34:38;;;;;;;3.80;3.70;;;;;;;7.18;84.59;100244.84;5115359;28;20188;-70
2023/01/14 10:37:09;;;;;;;3.50;3.30;;;;;;;7.23;84.84;100254.25;5115022;28;20770;-70
2023/01/14 10:39:38;;;;;;;3.13;3.03;;;;;;;7.22;85.17;100239.22;5115327;28;20192;-71
2023/01/14 10:42:05;;;;;;;3.83;3.47;;;;;;;7.20;85.33;100232.28;5114925;28;20188;-71
2023/01/14 10:44:35;;;;;;;6.90;3.50;;;;;;;7.23;85.53;100226.75;5114874;28;20186;-71
2023/01/14 10:47:08;;;;;;;3.90;3.60;;;;;;;7.19;85.57;100207.47;5114698;28;20258;-71
2023/01/14 10:49:55;;;;;;;3.93;2.63;;;;;;;7.21;85.84;100199.38;5113534;28;20201;-71
2023/01/14 10:52:21;;;;;;;3.20;2.90;;;;;;;7.11;86.63;100200.94;5114787;28;20187;-71
2023/01/14 10:55:10;;;;;;;4.13;3.23;;;;;;;7.10;86.64;100186.78;5114989;28;20200;-71
2023/01/14 10:57:44;;;;;;;3.13;3.03;;;;;;;7.17;86.51;100185.41;5114792;28;20205;-71
2023/01/14 11:00:35;;;;;;;5.60;3.27;;;;;;;7.12;87.07;100190.19;5114673;28;20200;-72
2023/01/14 11:03:05;;;;;;;3.83;3.73;;;;;;;7.12;87.95;100171.56;5102855;28;20292;-72
2023/01/14 11:05:35;;;;;;;4.00;3.53;;;;;;;7.14;87.98;100168.81;5114812;28;20587;-72
2023/01/14 11:08:21;;;;;;;5.40;4.47;;;;;;;7.19;87.57;100164.88;5114455;28;20227;-72
2023/01/14 11:11:03;;;;;;;3.03;2.30;;;;;;;7.17;87.99;100145.47;5115026;28;20183;-72
2023/01/14 11:13:42;;;;;;;3.57;3.10;;;;;;;7.15;88.22;100142.03;5114721;28;20607;-72
2023/01/14 11:16:28;;;;;;;4.93;2.87;;;;;;;7.13;88.38;100143.09;5096074;28;20189;-72
2023/01/14 11:19:24;;;;;;;9.00;3.47;;;;;;;7.14;88.58;100143.03;5114544;28;20239;-71
2023/01/14 11:21:53;;;;;;;4.20;3.27;;;;;;;7.13;88.78;100106.69;5114462;28;20183;-72
2023/01/14 11:24:35;;;;;;;4.27;2.30;;;;;;;7.16;88.74;100117.16;5114472;28;20183;-72
2023/01/14 11:27:06;;;;;;;3.10;2.57;;;;;;;7.19;88.82;100100.94;5114469;28;20302;-72
2023/01/14 11:29:41;;;;;;;11.67;2.77;;;;;;;7.22;88.89;100094.56;5114736;28;20205;-72
2023/01/14 11:32:11;;;;;;;2.57;2.37;;;;;;;7.23;88.73;100065.16;5114110;28;20180;-72
2023/01/14 11:34:47;;;;;;;5.00;3.20;;;;;;;7.31;88.27;100058.47;5114037;28;20252;-72
2023/01/14 11:37:20;;;;;;;2.77;2.50;;;;;;;7.26;88.68;100042.81;5114233;28;20601;-71
2023/01/14 11:39:56;;;;;;;4.00;3.33;;;;;;;7.27;88.89;100015.19;5114272;28;20257;-72
2023/01/14 11:42:25;;;;;;;3.30;2.60;;;;;;;7.28;89.39;100003.59;5113998;28;20264;-72
2023/01/14 11:45:18;;;;;;;4.43;2.63;;;;;;;7.30;89.46;99985.69;5113928;28;20193;-72
2023/01/14 11:47:52;;;;;;;2.60;2.37;;;;;;;7.32;89.59;99977.59;5105053;28;20320;-71
2023/01/14 11:50:22;;;;;;;3.27;2.70;;;;;;;7.43;88.39;99980.34;5113838;28;20170;-72
2023/01/14 11:52:59;;;;;;;5.13;2.80;;;;;;;7.43;88.78;99969.69;5113847;28;20185;-73
2023/01/14 11:55:28;;;;;;;3.13;2.80;;;;;;;7.40;88.86;99949.47;5114034;28;20258;-72
2023/01/14 11:58:03;;;;;;;4.60;3.10;;;;;;;7.45;88.78;99952.66;5113650;28;20284;-72
2023/01/14 12:00:42;;;;;;;2.27;2.10;;;;;;;7.48;88.67;99948.91;5114054;28;20177;-72
2023/01/14 12:03:25;;;;;;;4.10;2.40;;;;;;;7.46;89.23;99933.03;5095890;28;20191;-72
2023/01/14 12:05:53;;;;;;;3.47;3.17;;;;;;;7.54;89.31;99928.94;5113566;28;20205;-72
2023/01/14 12:08:30;;;;;;;3.07;2.30;;;;;;;7.56;89.24;99933.22;5113629;28;20280;-72
2023/01/14 12:10:59;;;;;;;2.30;2.10;;;;;;;7.58;89.33;99931.28;5114189;28;20251;-72
2023/01/14 12:16:49;;;;;;;2.37;2.27;;;;;;;7.68;88.51;99928.81;5113636;28;20193;-72
2023/01/14 12:19:27;;;;;;;3.40;1.40;;;;;;;7.74;89.48;99916.88;5095297;28;20657;-72